Terminal Aerodrome Forecast
Issued by NWS

Home | Current Version | Previous Version | Text Only | Print | Product List | Glossary On
Versions: 1 2 3 4 5 6 7 8 9 10 11 12 13 14 15 16 17 18 19 20 21 22 23 24 25 26 27 28
000
FTUS44 KHGX 261138
TAFUTS
TAF
KUTS 261138Z 2612/2712 VRB02KT 4SM BR FEW004
      TEMPO 2612/2614 4SM BR BKN004
     FM261400 02005KT P6SM BKN015 BKN150
     FM262100 01006KT P6SM VCSH SCT040 BKN150
     FM270100 VRB02KT P6SM FEW040 OVC150
     FM270900 00000KT P6SM SCT015 BKN050=

USA.gov is the U.S. government's official web portal to all federal, state and local government web resources and services.